sensor_id;sensor_type;location;lat;lon;timestamp;pressure;altitude;pressure_sealevel;temperature;humidity
48358;BME280;41929;51.478;-0.026;2022-12-11T00:00:40;78671.22;;;-143.00;100.00
48358;BME280;41929;51.478;-0.026;2022-12-11T00:03:06;78659.38;;;-143.00;100.00
48358;BME280;41929;51.478;-0.026;2022-12-11T00:05:31;78655.44;;;-143.00;100.00
48358;BME280;41929;51.478;-0.026;2022-12-11T00:07:57;78655.44;;;-143.00;100.00
48358;BME280;41929;51.478;-0.026;2022-12-11T00:10:23;78665.31;;;-143.00;100.00
48358;BME280;41929;51.478;-0.026;2022-12-11T00:12:49;78671.22;;;-143.00;100.00
48358;BME280;41929;51.478;-0.026;2022-12-11T00:15:14;78683.06;;;-143.00;100.00
48358;BME280;41929;51.478;-0.026;2022-12-11T00:17:42;78669.25;;;-143.00;100.00
48358;BME280;41929;51.478;-0.026;2022-12-11T00:20:08;78675.16;;;-143.00;100.00
48358;BME280;41929;51.478;-0.026;2022-12-11T00:22:33;78690.97;;;-143.00;100.00
48358;BME280;41929;51.478;-0.026;2022-12-11T00:25:00;78681.09;;;-143.00;100.00
48358;BME280;41929;51.478;-0.026;2022-12-11T00:27:25;78671.22;;;-143.00;100.00
48358;BME280;41929;51.478;-0.026;2022-12-11T00:29:50;78673.19;;;-143.00;100.00
48358;BME280;41929;51.478;-0.026;2022-12-11T00:32:16;78675.16;;;-143.00;100.00
48358;BME280;41929;51.478;-0.026;2022-12-11T00:34:41;78698.84;;;-143.00;100.00
48358;BME280;41929;51.478;-0.026;2022-12-11T00:37:06;78702.81;;;-143.00;100.00
48358;BME280;41929;51.478;-0.026;2022-12-11T00:39:32;78718.59;;;-143.00;100.00
48358;BME280;41929;51.478;-0.026;2022-12-11T00:41:57;78732.41;;;-143.00;100.00
48358;BME280;41929;51.478;-0.026;2022-12-11T00:44:23;78712.66;;;-143.00;100.00
48358;BME280;41929;51.478;-0.026;2022-12-11T00:46:48;78681.09;;;-143.00;100.00
48358;BME280;41929;51.478;-0.026;2022-12-11T00:49:13;78685.03;;;-143.00;100.00
48358;BME280;41929;51.478;-0.026;2022-12-11T00:51:39;78679.13;;;-143.00;100.00
48358;BME280;41929;51.478;-0.026;2022-12-11T00:54:04;78685.03;;;-143.00;100.00
48358;BME280;41929;51.478;-0.026;2022-12-11T00:56:33;78681.09;;;-143.00;100.00
48358;BME280;41929;51.478;-0.026;2022-12-11T00:58:59;78679.13;;;-143.00;100.00
48358;BME280;41929;51.478;-0.026;2022-12-11T01:01:24;78677.16;;;-143.00;100.00
48358;BME280;41929;51.478;-0.026;2022-12-11T01:03:50;78677.16;;;-143.00;100.00
48358;BME280;41929;51.478;-0.026;2022-12-11T01:06:19;78683.06;;;-143.00;100.00
48358;BME280;41929;51.478;-0.026;2022-12-11T01:08:45;78681.09;;;-143.00;100.00
48358;BME280;41929;51.478;-0.026;2022-12-11T01:11:13;78679.13;;;-143.00;100.00
48358;BME280;41929;51.478;-0.026;2022-12-11T01:13:39;78679.13;;;-143.00;100.00
48358;BME280;41929;51.478;-0.026;2022-12-11T01:16:10;78692.94;;;-143.00;100.00
48358;BME280;41929;51.478;-0.026;2022-12-11T01:18:37;78704.78;;;-143.00;100.00
48358;BME280;41929;51.478;-0.026;2022-12-11T01:21:10;78712.66;;;-143.00;100.00
48358;BME280;41929;51.478;-0.026;2022-12-11T01:23:36;78726.50;;;-143.00;100.00
48358;BME280;41929;51.478;-0.026;2022-12-11T01:26:10;78736.34;;;-143.00;100.00
48358;BME280;41929;51.478;-0.026;2022-12-11T01:28:36;78742.28;;;-143.00;100.00
48358;BME280;41929;51.478;-0.026;2022-12-11T01:31:02;78734.38;;;-143.00;100.00
48358;BME280;41929;51.478;-0.026;2022-12-11T01:33:31;78732.41;;;-143.00;100.00
48358;BME280;41929;51.478;-0.026;2022-12-11T01:35:56;78700.84;;;-143.00;100.00
48358;BME280;41929;51.478;-0.026;2022-12-11T01:38:22;78683.06;;;-143.00;100.00
48358;BME280;41929;51.478;-0.026;2022-12-11T01:40:48;78698.84;;;-143.00;100.00
48358;BME280;41929;51.478;-0.026;2022-12-11T01:43:14;78708.72;;;-143.00;100.00
48358;BME280;41929;51.478;-0.026;2022-12-11T01:45:42;78718.59;;;-143.00;100.00
48358;BME280;41929;51.478;-0.026;2022-12-11T01:48:13;78732.41;;;-143.00;100.00
48358;BME280;41929;51.478;-0.026;2022-12-11T01:50:49;78716.63;;;-143.00;100.00
48358;BME280;41929;51.478;-0.026;2022-12-11T01:53:20;78698.84;;;-143.00;100.00
48358;BME280;41929;51.478;-0.026;2022-12-11T01:55:48;78726.50;;;-143.00;100.00
48358;BME280;41929;51.478;-0.026;2022-12-11T01:58:15;78746.22;;;-143.00;100.00
48358;BME280;41929;51.478;-0.026;2022-12-11T02:00:41;78762.00;;;-143.00;100.00
48358;BME280;41929;51.478;-0.026;2022-12-11T02:03:06;78742.28;;;-143.00;100.00
48358;BME280;41929;51.478;-0.026;2022-12-11T02:05:32;78694.91;;;-143.00;100.00
48358;BME280;41929;51.478;-0.026;2022-12-11T02:07:59;78683.06;;;-143.00;100.00
48358;BME280;41929;51.478;-0.026;2022-12-11T02:10:59;78667.28;;;-143.00;100.00
48358;BME280;41929;51.478;-0.026;2022-12-11T02:13:27;78647.53;;;-143.00;100.00
48358;BME280;41929;51.478;-0.026;2022-12-11T02:18:30;78643.59;;;-143.00;100.00
48358;BME280;41929;51.478;-0.026;2022-12-11T02:32:33;78675.16;;;-143.00;100.00
48358;BME280;41929;51.478;-0.026;2022-12-11T02:35:23;78667.28;;;-143.00;100.00
48358;BME280;41929;51.478;-0.026;2022-12-11T02:37:56;78663.34;;;-143.00;100.00
48358;BME280;41929;51.478;-0.026;2022-12-11T02:40:27;78651.50;;;-143.00;100.00
48358;BME280;41929;51.478;-0.026;2022-12-11T02:42:56;78647.53;;;-143.00;100.00
48358;BME280;41929;51.478;-0.026;2022-12-11T02:45:25;78651.50;;;-143.00;100.00
48358;BME280;41929;51.478;-0.026;2022-12-11T02:47:52;78655.44;;;-143.00;100.00
48358;BME280;41929;51.478;-0.026;2022-12-11T02:50:19;78655.44;;;-143.00;100.00
48358;BME280;41929;51.478;-0.026;2022-12-11T02:52:47;78653.47;;;-143.00;100.00
48358;BME280;41929;51.478;-0.026;2022-12-11T02:55:15;78653.47;;;-143.00;100.00
48358;BME280;41929;51.478;-0.026;2022-12-11T02:57:45;78663.34;;;-143.00;100.00
48358;BME280;41929;51.478;-0.026;2022-12-11T03:00:12;78661.34;;;-143.00;100.00
48358;BME280;41929;51.478;-0.026;2022-12-11T03:02:38;78655.44;;;-143.00;100.00
48358;BME280;41929;51.478;-0.026;2022-12-11T03:05:04;78659.38;;;-143.00;100.00
48358;BME280;41929;51.478;-0.026;2022-12-11T03:07:35;78659.38;;;-143.00;100.00
48358;BME280;41929;51.478;-0.026;2022-12-11T03:10:03;78681.09;;;-143.00;100.00
48358;BME280;41929;51.478;-0.026;2022-12-11T03:12:32;78675.16;;;-143.00;100.00
48358;BME280;41929;51.478;-0.026;2022-12-11T03:15:00;78683.06;;;-143.00;100.00
48358;BME280;41929;51.478;-0.026;2022-12-11T03:17:31;78712.66;;;-143.00;100.00
48358;BME280;41929;51.478;-0.026;2022-12-11T03:20:02;78738.31;;;-143.00;100.00
48358;BME280;41929;51.478;-0.026;2022-12-11T03:25:16;78763.97;;;-143.00;100.00
48358;BME280;41929;51.478;-0.026;2022-12-11T03:27:49;78763.97;;;-143.00;100.00
48358;BME280;41929;51.478;-0.026;2022-12-11T03:30:21;78779.78;;;-143.00;100.00
48358;BME280;41929;51.478;-0.026;2022-12-11T03:37:43;78789.63;;;-143.00;100.00
48358;BME280;41929;51.478;-0.026;2022-12-11T03:40:13;78791.63;;;-143.00;100.00
48358;BME280;41929;51.478;-0.026;2022-12-11T03:42:41;78791.63;;;-143.00;100.00
48358;BME280;41929;51.478;-0.026;2022-12-11T03:45:09;78785.69;;;-143.00;100.00
48358;BME280;41929;51.478;-0.026;2022-12-11T03:47:37;78793.59;;;-143.00;100.00
48358;BME280;41929;51.478;-0.026;2022-12-11T03:50:07;78791.63;;;-143.00;100.00
48358;BME280;41929;51.478;-0.026;2022-12-11T03:52:34;78801.47;;;-143.00;100.00
48358;BME280;41929;51.478;-0.026;2022-12-11T03:55:04;78797.53;;;-143.00;100.00
48358;BME280;41929;51.478;-0.026;2022-12-11T03:57:34;78809.38;;;-143.00;100.00
48358;BME280;41929;51.478;-0.026;2022-12-11T04:00:00;78815.28;;;-143.00;100.00
48358;BME280;41929;51.478;-0.026;2022-12-11T04:02:29;78817.28;;;-143.00;100.00
48358;BME280;41929;51.478;-0.026;2022-12-11T04:04:54;78829.13;;;-143.00;100.00
48358;BME280;41929;51.478;-0.026;2022-12-11T04:07:20;78833.06;;;-143.00;100.00
48358;BME280;41929;51.478;-0.026;2022-12-11T04:09:45;78825.16;;;-143.00;100.00
48358;BME280;41929;51.478;-0.026;2022-12-11T04:12:11;78789.63;;;-143.00;100.00
48358;BME280;41929;51.478;-0.026;2022-12-11T04:14:36;78767.94;;;-143.00;100.00
48358;BME280;41929;51.478;-0.026;2022-12-11T04:17:20;78738.31;;;-143.00;100.00
48358;BME280;41929;51.478;-0.026;2022-12-11T04:20:05;78730.44;;;-143.00;100.00
48358;BME280;41929;51.478;-0.026;2022-12-11T04:22:49;78748.19;;;-143.00;100.00
48358;BME280;41929;51.478;-0.026;2022-12-11T04:25:33;78758.06;;;-143.00;100.00
48358;BME280;41929;51.478;-0.026;2022-12-11T04:27:58;78748.19;;;-143.00;100.00
48358;BME280;41929;51.478;-0.026;2022-12-11T04:30:24;78754.13;;;-143.00;100.00
48358;BME280;41929;51.478;-0.026;2022-12-11T04:32:51;78746.22;;;-143.00;100.00
48358;BME280;41929;51.478;-0.026;2022-12-11T04:35:17;78754.13;;;-143.00;100.00
48358;BME280;41929;51.478;-0.026;2022-12-11T04:37:42;78763.97;;;-143.00;100.00
48358;BME280;41929;51.478;-0.026;2022-12-11T04:40:11;78740.31;;;-143.00;100.00
48358;BME280;41929;51.478;-0.026;2022-12-11T04:42:38;78744.25;;;-143.00;100.00
48358;BME280;41929;51.478;-0.026;2022-12-11T04:45:05;78740.31;;;-143.00;100.00
48358;BME280;41929;51.478;-0.026;2022-12-11T04:47:31;78724.50;;;-143.00;100.00
48358;BME280;41929;51.478;-0.026;2022-12-11T04:49:56;78714.66;;;-143.00;100.00
48358;BME280;41929;51.478;-0.026;2022-12-11T04:52:21;78696.88;;;-143.00;100.00
48358;BME280;41929;51.478;-0.026;2022-12-11T04:54:47;78685.03;;;-143.00;100.00
48358;BME280;41929;51.478;-0.026;2022-12-11T04:57:12;78683.06;;;-143.00;100.00
48358;BME280;41929;51.478;-0.026;2022-12-11T04:59:38;78661.34;;;-143.00;100.00
48358;BME280;41929;51.478;-0.026;2022-12-11T05:02:03;78633.72;;;-143.00;100.00
48358;BME280;41929;51.478;-0.026;2022-12-11T05:04:33;78608.06;;;-143.00;100.00
48358;BME280;41929;51.478;-0.026;2022-12-11T05:06:59;78576.50;;;-143.00;100.00
48358;BME280;41929;51.478;-0.026;2022-12-11T05:09:25;78560.72;;;-143.00;100.00
48358;BME280;41929;51.478;-0.026;2022-12-11T05:11:51;78554.78;;;-143.00;100.00
48358;BME280;41929;51.478;-0.026;2022-12-11T05:14:17;78537.03;;;-143.00;100.00
48358;BME280;41929;51.478;-0.026;2022-12-11T05:16:43;78529.13;;;-143.00;100.00
48358;BME280;41929;51.478;-0.026;2022-12-11T05:19:08;78521.25;;;-143.00;100.00
48358;BME280;41929;51.478;-0.026;2022-12-11T05:21:34;78531.09;;;-143.00;100.00
48358;BME280;41929;51.478;-0.026;2022-12-11T05:23:59;78560.72;;;-143.00;100.00
48358;BME280;41929;51.478;-0.026;2022-12-11T05:26:24;78550.84;;;-143.00;100.00
48358;BME280;41929;51.478;-0.026;2022-12-11T05:28:51;78548.88;;;-143.00;100.00
48358;BME280;41929;51.478;-0.026;2022-12-11T05:31:20;78535.06;;;-143.00;100.00
48358;BME280;41929;51.478;-0.026;2022-12-11T05:33:47;78533.09;;;-143.00;100.00
48358;BME280;41929;51.478;-0.026;2022-12-11T05:38:49;78507.44;;;-143.00;100.00
48358;BME280;41929;51.478;-0.026;2022-12-11T05:41:17;78503.47;;;-143.00;100.00
48358;BME280;41929;51.478;-0.026;2022-12-11T05:43:43;78521.25;;;-143.00;100.00
48358;BME280;41929;51.478;-0.026;2022-12-11T05:48:38;78525.19;;;-143.00;100.00
48358;BME280;41929;51.478;-0.026;2022-12-11T05:51:04;78521.25;;;-143.00;100.00
48358;BME280;41929;51.478;-0.026;2022-12-11T05:53:30;78517.28;;;-143.00;100.00
48358;BME280;41929;51.478;-0.026;2022-12-11T05:56:07;78505.44;;;-143.00;100.00
48358;BME280;41929;51.478;-0.026;2022-12-11T05:58:34;78497.56;;;-143.00;100.00
48358;BME280;41929;51.478;-0.026;2022-12-11T06:01:00;78481.78;;;-143.00;100.00
48358;BME280;41929;51.478;-0.026;2022-12-11T06:03:26;78467.97;;;-143.00;100.00
48358;BME280;41929;51.478;-0.026;2022-12-11T06:05:51;78450.19;;;-143.00;100.00
48358;BME280;41929;51.478;-0.026;2022-12-11T06:08:17;78452.16;;;-143.00;100.00
48358;BME280;41929;51.478;-0.026;2022-12-11T06:10:49;78454.13;;;-143.00;100.00
48358;BME280;41929;51.478;-0.026;2022-12-11T06:13:15;78460.06;;;-143.00;100.00
48358;BME280;41929;51.478;-0.026;2022-12-11T06:15:41;78469.94;;;-143.00;100.00
48358;BME280;41929;51.478;-0.026;2022-12-11T06:18:06;78456.13;;;-143.00;100.00
48358;BME280;41929;51.478;-0.026;2022-12-11T06:20:33;78444.28;;;-143.00;100.00
48358;BME280;41929;51.478;-0.026;2022-12-11T06:22:58;78450.19;;;-143.00;100.00
48358;BME280;41929;51.478;-0.026;2022-12-11T06:25:24;78452.16;;;-143.00;100.00
48358;BME280;41929;51.478;-0.026;2022-12-11T06:27:49;78456.13;;;-143.00;100.00
48358;BME280;41929;51.478;-0.026;2022-12-11T06:30:15;78460.06;;;-143.00;100.00
48358;BME280;41929;51.478;-0.026;2022-12-11T06:32:40;78465.97;;;-143.00;100.00
48358;BME280;41929;51.478;-0.026;2022-12-11T06:35:06;78475.84;;;-143.00;100.00
48358;BME280;41929;51.478;-0.026;2022-12-11T06:37:34;78497.56;;;-143.00;100.00
48358;BME280;41929;51.478;-0.026;2022-12-11T06:39:59;78503.47;;;-143.00;100.00
48358;BME280;41929;51.478;-0.026;2022-12-11T06:42:25;78511.38;;;-143.00;100.00
48358;BME280;41929;51.478;-0.026;2022-12-11T06:44:50;78495.59;;;-143.00;100.00
48358;BME280;41929;51.478;-0.026;2022-12-11T06:47:15;78489.66;;;-143.00;100.00
48358;BME280;41929;51.478;-0.026;2022-12-11T06:49:40;78489.66;;;-143.00;100.00
48358;BME280;41929;51.478;-0.026;2022-12-11T06:52:06;78493.63;;;-143.00;100.00
48358;BME280;41929;51.478;-0.026;2022-12-11T06:54:31;78489.66;;;-143.00;100.00
48358;BME280;41929;51.478;-0.026;2022-12-11T06:56:57;78485.72;;;-143.00;100.00
48358;BME280;41929;51.478;-0.026;2022-12-11T06:59:22;78485.72;;;-143.00;100.00
48358;BME280;41929;51.478;-0.026;2022-12-11T07:01:47;78473.88;;;-143.00;100.00
48358;BME280;41929;51.478;-0.026;2022-12-11T07:04:12;78473.88;;;-143.00;100.00
48358;BME280;41929;51.478;-0.026;2022-12-11T07:06:38;78485.72;;;-143.00;100.00
48358;BME280;41929;51.478;-0.026;2022-12-11T07:09:04;78493.63;;;-143.00;100.00
48358;BME280;41929;51.478;-0.026;2022-12-11T07:11:30;78519.25;;;-143.00;100.00
48358;BME280;41929;51.478;-0.026;2022-12-11T07:13:58;78489.66;;;-143.00;100.00
48358;BME280;41929;51.478;-0.026;2022-12-11T07:16:24;78479.81;;;-143.00;100.00
48358;BME280;41929;51.478;-0.026;2022-12-11T07:18:51;78473.88;;;-143.00;100.00
48358;BME280;41929;51.478;-0.026;2022-12-11T07:21:17;78483.75;;;-143.00;100.00
48358;BME280;41929;51.478;-0.026;2022-12-11T07:23:43;78483.75;;;-143.00;100.00
48358;BME280;41929;51.478;-0.026;2022-12-11T07:26:11;78462.03;;;-143.00;100.00
48358;BME280;41929;51.478;-0.026;2022-12-11T07:28:37;78454.13;;;-143.00;100.00
48358;BME280;41929;51.478;-0.026;2022-12-11T07:31:13;78464.00;;;-143.00;100.00
48358;BME280;41929;51.478;-0.026;2022-12-11T07:33:39;78462.03;;;-143.00;100.00
48358;BME280;41929;51.478;-0.026;2022-12-11T07:36:07;78458.09;;;-143.00;100.00
48358;BME280;41929;51.478;-0.026;2022-12-11T07:38:33;78467.97;;;-143.00;100.00
48358;BME280;41929;51.478;-0.026;2022-12-11T07:41:02;78469.94;;;-143.00;100.00
48358;BME280;41929;51.478;-0.026;2022-12-11T07:43:29;78483.75;;;-143.00;100.00
48358;BME280;41929;51.478;-0.026;2022-12-11T07:46:09;78481.78;;;-143.00;100.00
48358;BME280;41929;51.478;-0.026;2022-12-11T07:48:36;78491.63;;;-143.00;100.00
48358;BME280;41929;51.478;-0.026;2022-12-11T07:51:12;78509.41;;;-143.00;100.00
48358;BME280;41929;51.478;-0.026;2022-12-11T07:53:39;78519.25;;;-143.00;100.00
48358;BME280;41929;51.478;-0.026;2022-12-11T07:56:05;78503.47;;;-143.00;100.00
48358;BME280;41929;51.478;-0.026;2022-12-11T07:58:31;78485.72;;;-143.00;100.00
48358;BME280;41929;51.478;-0.026;2022-12-11T08:00:56;78503.47;;;-143.00;100.00
48358;BME280;41929;51.478;-0.026;2022-12-11T08:03:22;78491.63;;;-143.00;100.00
48358;BME280;41929;51.478;-0.026;2022-12-11T08:05:49;78491.63;;;-143.00;100.00
48358;BME280;41929;51.478;-0.026;2022-12-11T08:08:15;78493.63;;;-143.00;100.00
48358;BME280;41929;51.478;-0.026;2022-12-11T08:10:41;78495.59;;;-143.00;100.00
48358;BME280;41929;51.478;-0.026;2022-12-11T08:13:07;78485.72;;;-143.00;100.00
48358;BME280;41929;51.478;-0.026;2022-12-11T08:15:34;78491.63;;;-143.00;100.00
48358;BME280;41929;51.478;-0.026;2022-12-11T08:18:00;78501.50;;;-143.00;100.00
48358;BME280;41929;51.478;-0.026;2022-12-11T08:20:25;78519.25;;;-143.00;100.00
48358;BME280;41929;51.478;-0.026;2022-12-11T08:22:50;78523.22;;;-143.00;100.00
48358;BME280;41929;51.478;-0.026;2022-12-11T08:25:16;78537.03;;;-143.00;100.00
48358;BME280;41929;51.478;-0.026;2022-12-11T08:27:41;78548.88;;;-143.00;100.00
48358;BME280;41929;51.478;-0.026;2022-12-11T08:30:07;78537.03;;;-143.00;100.00
48358;BME280;41929;51.478;-0.026;2022-12-11T08:32:33;78560.72;;;-143.00;100.00
48358;BME280;41929;51.478;-0.026;2022-12-11T08:34:59;78578.47;;;-143.00;100.00
48358;BME280;41929;51.478;-0.026;2022-12-11T08:37:25;78542.94;;;-143.00;100.00
48358;BME280;41929;51.478;-0.026;2022-12-11T08:39:50;78535.06;;;-143.00;100.00
48358;BME280;41929;51.478;-0.026;2022-12-11T08:42:15;78533.09;;;-143.00;100.00
48358;BME280;41929;51.478;-0.026;2022-12-11T08:44:41;78515.31;;;-143.00;100.00
48358;BME280;41929;51.478;-0.026;2022-12-11T08:47:06;78517.28;;;-143.00;100.00
48358;BME280;41929;51.478;-0.026;2022-12-11T08:49:34;78513.34;;;-143.00;100.00
48358;BME280;41929;51.478;-0.026;2022-12-11T08:51:59;78531.09;;;-143.00;100.00
48358;BME280;41929;51.478;-0.026;2022-12-11T08:54:25;78523.22;;;-143.00;100.00
48358;BME280;41929;51.478;-0.026;2022-12-11T08:56:50;78540.97;;;-143.00;100.00
48358;BME280;41929;51.478;-0.026;2022-12-11T08:59:16;78517.28;;;-143.00;100.00
48358;BME280;41929;51.478;-0.026;2022-12-11T09:01:42;78539.00;;;-143.00;100.00
48358;BME280;41929;51.478;-0.026;2022-12-11T09:04:07;78537.03;;;-143.00;100.00
48358;BME280;41929;51.478;-0.026;2022-12-11T09:06:33;78505.44;;;-143.00;100.00
48358;BME280;41929;51.478;-0.026;2022-12-11T09:08:59;78507.44;;;-143.00;100.00
48358;BME280;41929;51.478;-0.026;2022-12-11T09:11:28;78515.31;;;-143.00;100.00
48358;BME280;41929;51.478;-0.026;2022-12-11T09:13:54;78517.28;;;-143.00;100.00
48358;BME280;41929;51.478;-0.026;2022-12-11T09:16:23;78546.91;;;-143.00;100.00
48358;BME280;41929;51.478;-0.026;2022-12-11T09:18:50;78525.19;;;-143.00;100.00
48358;BME280;41929;51.478;-0.026;2022-12-11T09:21:19;78515.31;;;-143.00;100.00
48358;BME280;41929;51.478;-0.026;2022-12-11T09:23:45;78511.38;;;-143.00;100.00
48358;BME280;41929;51.478;-0.026;2022-12-11T09:26:13;78499.53;;;-143.00;100.00
48358;BME280;41929;51.478;-0.026;2022-12-11T09:28:39;78475.84;;;-143.00;100.00
48358;BME280;41929;51.478;-0.026;2022-12-11T09:31:09;78477.81;;;-143.00;100.00
48358;BME280;41929;51.478;-0.026;2022-12-11T09:33:36;78465.97;;;-143.00;100.00
48358;BME280;41929;51.478;-0.026;2022-12-11T09:36:02;78465.97;;;-143.00;100.00
48358;BME280;41929;51.478;-0.026;2022-12-11T09:38:29;78465.97;;;-143.00;100.00
48358;BME280;41929;51.478;-0.026;2022-12-11T09:40:56;78471.91;;;-143.00;100.00
48358;BME280;41929;51.478;-0.026;2022-12-11T09:43:37;78450.19;;;-143.00;100.00
48358;BME280;41929;51.478;-0.026;2022-12-11T09:46:09;78432.44;;;-143.00;100.00
48358;BME280;41929;51.478;-0.026;2022-12-11T09:48:37;78438.34;;;-143.00;100.00
48358;BME280;41929;51.478;-0.026;2022-12-11T09:51:24;78436.38;;;-143.00;100.00
48358;BME280;41929;51.478;-0.026;2022-12-11T09:53:51;78432.44;;;-143.00;100.00
48358;BME280;41929;51.478;-0.026;2022-12-11T09:56:25;78414.69;;;-143.00;100.00
48358;BME280;41929;51.478;-0.026;2022-12-11T10:01:41;78406.78;;;-143.00;100.00
48358;BME280;41929;51.478;-0.026;2022-12-11T10:09:12;78426.50;;;-143.00;100.00
48358;BME280;41929;51.478;-0.026;2022-12-11T10:12:11;78420.59;;;-143.00;100.00
48358;BME280;41929;51.478;-0.026;2022-12-11T10:17:16;78416.66;;;-143.00;100.00
48358;BME280;41929;51.478;-0.026;2022-12-11T10:19:43;78404.81;;;-143.00;100.00
48358;BME280;41929;51.478;-0.026;2022-12-11T10:22:30;78410.72;;;-143.00;100.00
48358;BME280;41929;51.478;-0.026;2022-12-11T10:25:03;78426.50;;;-143.00;100.00
48358;BME280;41929;51.478;-0.026;2022-12-11T10:27:34;78438.34;;;-143.00;100.00
48358;BME280;41929;51.478;-0.026;2022-12-11T10:32:51;78383.09;;;-143.00;100.00
48358;BME280;41929;51.478;-0.026;2022-12-11T10:35:42;78345.59;;;-143.00;100.00
48358;BME280;41929;51.478;-0.026;2022-12-11T10:38:11;78333.75;;;-143.00;100.00
48358;BME280;41929;51.478;-0.026;2022-12-11T10:40:40;78314.03;;;-143.00;100.00
48358;BME280;41929;51.478;-0.026;2022-12-11T10:43:07;78296.28;;;-143.00;100.00
48358;BME280;41929;51.478;-0.026;2022-12-11T10:45:32;78316.00;;;-143.00;100.00
48358;BME280;41929;51.478;-0.026;2022-12-11T10:48:03;78339.69;;;-143.00;100.00
48358;BME280;41929;51.478;-0.026;2022-12-11T10:50:29;78341.66;;;-143.00;100.00
48358;BME280;41929;51.478;-0.026;2022-12-11T10:52:54;78327.84;;;-143.00;100.00
48358;BME280;41929;51.478;-0.026;2022-12-11T10:55:23;78316.00;;;-143.00;100.00
48358;BME280;41929;51.478;-0.026;2022-12-11T10:58:02;78306.13;;;-143.00;100.00
48358;BME280;41929;51.478;-0.026;2022-12-11T11:00:35;78319.94;;;-143.00;100.00
48358;BME280;41929;51.478;-0.026;2022-12-11T11:05:36;78349.56;;;-143.00;100.00
48358;BME280;41929;51.478;-0.026;2022-12-11T11:10:36;78385.06;;;-143.00;100.00
48358;BME280;41929;51.478;-0.026;2022-12-11T11:13:01;78355.47;;;-143.00;100.00
48358;BME280;41929;51.478;-0.026;2022-12-11T11:15:29;78349.56;;;-143.00;100.00
48358;BME280;41929;51.478;-0.026;2022-12-11T11:18:02;78349.56;;;-143.00;100.00
48358;BME280;41929;51.478;-0.026;2022-12-11T11:20:33;78339.69;;;-143.00;100.00
48358;BME280;41929;51.478;-0.026;2022-12-11T11:23:02;78355.47;;;-143.00;100.00
48358;BME280;41929;51.478;-0.026;2022-12-11T11:25:30;78343.63;;;-143.00;100.00
48358;BME280;41929;51.478;-0.026;2022-12-11T11:30:27;78284.44;;;-143.00;100.00
48358;BME280;41929;51.478;-0.026;2022-12-11T11:32:56;78298.25;;;-143.00;100.00
48358;BME280;41929;51.478;-0.026;2022-12-11T11:35:26;78290.34;;;-143.00;100.00
48358;BME280;41929;51.478;-0.026;2022-12-11T11:38:01;78298.25;;;-143.00;100.00
48358;BME280;41929;51.478;-0.026;2022-12-11T11:40:30;78317.97;;;-143.00;100.00
48358;BME280;41929;51.478;-0.026;2022-12-11T11:43:12;78312.06;;;-143.00;100.00
48358;BME280;41929;51.478;-0.026;2022-12-11T11:45:57;78325.88;;;-143.00;100.00
48358;BME280;41929;51.478;-0.026;2022-12-11T11:50:52;78339.69;;;-143.00;100.00
48358;BME280;41929;51.478;-0.026;2022-12-11T11:53:31;78339.69;;;-143.00;100.00
48358;BME280;41929;51.478;-0.026;2022-12-11T11:56:06;78331.78;;;-143.00;100.00
48358;BME280;41929;51.478;-0.026;2022-12-11T12:01:28;78288.38;;;-143.00;100.00
48358;BME280;41929;51.478;-0.026;2022-12-11T12:03:54;78282.47;;;-143.00;100.00
48358;BME280;41929;51.478;-0.026;2022-12-11T12:16:53;78274.56;;;-143.00;100.00
48358;BME280;41929;51.478;-0.026;2022-12-11T12:22:27;78241.03;;;-143.00;100.00
48358;BME280;41929;51.478;-0.026;2022-12-11T12:25:23;78244.97;;;-143.00;100.00
48358;BME280;41929;51.478;-0.026;2022-12-11T12:28:04;78213.38;;;-143.00;100.00
48358;BME280;41929;51.478;-0.026;2022-12-11T12:36:14;78168.00;;;-143.00;100.00
48358;BME280;41929;51.478;-0.026;2022-12-11T12:38:53;78183.78;;;-143.00;100.00
48358;BME280;41929;51.478;-0.026;2022-12-11T12:41:47;78193.66;;;-143.00;100.00
48358;BME280;41929;51.478;-0.026;2022-12-11T12:44:17;78173.94;;;-143.00;100.00
48358;BME280;41929;51.478;-0.026;2022-12-11T12:47:02;78168.00;;;-143.00;100.00
48358;BME280;41929;51.478;-0.026;2022-12-11T12:49:46;78160.09;;;-143.00;100.00
48358;BME280;41929;51.478;-0.026;2022-12-11T12:52:19;78150.25;;;-143.00;100.00
48358;BME280;41929;51.478;-0.026;2022-12-11T12:54:49;78164.06;;;-143.00;100.00
48358;BME280;41929;51.478;-0.026;2022-12-11T12:57:34;78160.09;;;-143.00;100.00
48358;BME280;41929;51.478;-0.026;2022-12-11T13:00:01;78160.09;;;-143.00;100.00
48358;BME280;41929;51.478;-0.026;2022-12-11T13:02:28;78144.31;;;-143.00;100.00
48358;BME280;41929;51.478;-0.026;2022-12-11T13:04:58;78146.28;;;-143.00;100.00
48358;BME280;41929;51.478;-0.026;2022-12-11T13:07:27;78138.41;;;-143.00;100.00
48358;BME280;41929;51.478;-0.026;2022-12-11T13:10:04;78150.25;;;-143.00;100.00
48358;BME280;41929;51.478;-0.026;2022-12-11T13:12:51;78138.41;;;-143.00;100.00
48358;BME280;41929;51.478;-0.026;2022-12-11T13:15:37;78126.56;;;-143.00;100.00
48358;BME280;41929;51.478;-0.026;2022-12-11T13:18:35;78130.50;;;-143.00;100.00
48358;BME280;41929;51.478;-0.026;2022-12-11T13:21:24;78140.38;;;-143.00;100.00
48358;BME280;41929;51.478;-0.026;2022-12-11T13:23:49;78166.03;;;-143.00;100.00
48358;BME280;41929;51.478;-0.026;2022-12-11T13:26:29;78150.25;;;-143.00;100.00
48358;BME280;41929;51.478;-0.026;2022-12-11T13:28:55;78134.47;;;-143.00;100.00
48358;BME280;41929;51.478;-0.026;2022-12-11T13:31:29;78138.41;;;-143.00;100.00
48358;BME280;41929;51.478;-0.026;2022-12-11T13:34:01;78122.63;;;-143.00;100.00
48358;BME280;41929;51.478;-0.026;2022-12-11T13:36:31;78124.59;;;-143.00;100.00
48358;BME280;41929;51.478;-0.026;2022-12-11T13:39:01;78116.69;;;-143.00;100.00
48358;BME280;41929;51.478;-0.026;2022-12-11T13:41:27;78134.47;;;-143.00;100.00